sensor_id;sensor_type;location;lat;lon;timestamp;P1;durP1;ratioP1;P2;durP2;ratioP2
73593;SDS011;64760;53.404;23.498;2023-06-22T00:02:03;22.85;;;15.55;;
73593;SDS011;64760;53.404;23.498;2023-06-22T00:04:29;21.13;;;15.57;;
73593;SDS011;64760;53.404;23.498;2023-06-22T00:06:56;22.88;;;15.52;;
73593;SDS011;64760;53.404;23.498;2023-06-22T00:09:22;23.25;;;15.77;;
73593;SDS011;64760;53.404;23.498;2023-06-22T00:11:49;22.02;;;16.33;;
73593;SDS011;64760;53.404;23.498;2023-06-22T00:14:15;21.33;;;15.77;;
73593;SDS011;64760;53.404;23.498;2023-06-22T00:16:41;22.50;;;16.77;;
73593;SDS011;64760;53.404;23.498;2023-06-22T00:19:08;22.30;;;16.27;;
73593;SDS011;64760;53.404;23.498;2023-06-22T00:21:37;20.20;;;14.88;;
73593;SDS011;64760;53.404;23.498;2023-06-22T00:24:04;22.13;;;15.90;;
73593;SDS011;64760;53.404;23.498;2023-06-22T00:26:30;21.63;;;15.52;;
73593;SDS011;64760;53.404;23.498;2023-06-22T00:28:57;22.00;;;16.73;;
73593;SDS011;64760;53.404;23.498;2023-06-22T00:31:23;25.23;;;17.88;;
73593;SDS011;64760;53.404;23.498;2023-06-22T00:33:49;25.67;;;16.48;;
73593;SDS011;64760;53.404;23.498;2023-06-22T00:36:16;23.83;;;16.98;;
73593;SDS011;64760;53.404;23.498;2023-06-22T00:38:43;25.33;;;17.15;;
73593;SDS011;64760;53.404;23.498;2023-06-22T00:41:13;23.90;;;16.80;;
73593;SDS011;64760;53.404;23.498;2023-06-22T00:46:56;24.13;;;16.50;;
73593;SDS011;64760;53.404;23.498;2023-06-22T00:49:24;19.58;;;15.80;;
73593;SDS011;64760;53.404;23.498;2023-06-22T00:51:50;23.42;;;16.83;;
73593;SDS011;64760;53.404;23.498;2023-06-22T00:54:17;23.52;;;17.40;;
73593;SDS011;64760;53.404;23.498;2023-06-22T00:59:23;20.50;;;14.90;;
73593;SDS011;64760;53.404;23.498;2023-06-22T01:01:50;22.58;;;16.75;;
73593;SDS011;64760;53.404;23.498;2023-06-22T01:04:18;20.90;;;15.15;;
73593;SDS011;64760;53.404;23.498;2023-06-22T01:06:45;23.52;;;17.20;;
73593;SDS011;64760;53.404;23.498;2023-06-22T01:09:26;21.13;;;15.07;;
73593;SDS011;64760;53.404;23.498;2023-06-22T01:11:58;18.92;;;14.75;;
73593;SDS011;64760;53.404;23.498;2023-06-22T01:14:29;24.13;;;16.67;;
73593;SDS011;64760;53.404;23.498;2023-06-22T01:17:01;22.42;;;16.20;;
73593;SDS011;64760;53.404;23.498;2023-06-22T01:22:07;20.20;;;14.60;;
73593;SDS011;64760;53.404;23.498;2023-06-22T01:30:24;19.65;;;15.30;;
73593;SDS011;64760;53.404;23.498;2023-06-22T01:32:53;24.45;;;16.25;;
73593;SDS011;64760;53.404;23.498;2023-06-22T01:35:21;20.95;;;15.00;;
73593;SDS011;64760;53.404;23.498;2023-06-22T01:37:48;22.30;;;15.57;;
73593;SDS011;64760;53.404;23.498;2023-06-22T01:40:17;20.63;;;15.13;;
73593;SDS011;64760;53.404;23.498;2023-06-22T01:42:46;23.70;;;15.55;;
73593;SDS011;64760;53.404;23.498;2023-06-22T01:45:16;19.92;;;14.57;;
73593;SDS011;64760;53.404;23.498;2023-06-22T01:50:10;20.23;;;14.75;;
73593;SDS011;64760;53.404;23.498;2023-06-22T01:52:38;23.70;;;15.77;;
73593;SDS011;64760;53.404;23.498;2023-06-22T01:55:04;23.60;;;16.20;;
73593;SDS011;64760;53.404;23.498;2023-06-22T01:57:32;24.05;;;17.25;;
73593;SDS011;64760;53.404;23.498;2023-06-22T01:59:59;22.02;;;16.13;;
73593;SDS011;64760;53.404;23.498;2023-06-22T02:02:35;23.52;;;16.45;;
73593;SDS011;64760;53.404;23.498;2023-06-22T02:05:07;23.00;;;15.93;;
73593;SDS011;64760;53.404;23.498;2023-06-22T02:08:00;22.17;;;15.25;;
73593;SDS011;64760;53.404;23.498;2023-06-22T02:10:38;23.73;;;15.77;;
73593;SDS011;64760;53.404;23.498;2023-06-22T02:13:09;22.13;;;17.02;;
73593;SDS011;64760;53.404;23.498;2023-06-22T02:15:37;21.05;;;16.10;;
73593;SDS011;64760;53.404;23.498;2023-06-22T02:18:04;22.63;;;15.75;;
73593;SDS011;64760;53.404;23.498;2023-06-22T02:20:32;24.38;;;16.65;;
73593;SDS011;64760;53.404;23.498;2023-06-22T02:23:03;22.58;;;15.82;;
73593;SDS011;64760;53.404;23.498;2023-06-22T02:25:29;22.92;;;16.52;;
73593;SDS011;64760;53.404;23.498;2023-06-22T02:27:55;22.85;;;16.65;;
73593;SDS011;64760;53.404;23.498;2023-06-22T02:30:22;24.58;;;17.25;;
73593;SDS011;64760;53.404;23.498;2023-06-22T02:32:48;22.65;;;16.45;;
73593;SDS011;64760;53.404;23.498;2023-06-22T02:35:16;22.77;;;16.73;;
73593;SDS011;64760;53.404;23.498;2023-06-22T02:37:44;24.27;;;17.00;;
73593;SDS011;64760;53.404;23.498;2023-06-22T02:40:12;25.92;;;17.05;;
73593;SDS011;64760;53.404;23.498;2023-06-22T02:42:39;24.77;;;16.63;;
73593;SDS011;64760;53.404;23.498;2023-06-22T02:47:32;26.92;;;17.48;;
73593;SDS011;64760;53.404;23.498;2023-06-22T02:49:58;28.85;;;18.17;;
73593;SDS011;64760;53.404;23.498;2023-06-22T02:52:25;30.48;;;17.42;;
73593;SDS011;64760;53.404;23.498;2023-06-22T02:54:51;26.30;;;17.42;;
73593;SDS011;64760;53.404;23.498;2023-06-22T02:57:18;27.65;;;17.27;;
73593;SDS011;64760;53.404;23.498;2023-06-22T02:59:45;25.75;;;18.02;;
73593;SDS011;64760;53.404;23.498;2023-06-22T03:02:12;26.50;;;18.30;;
73593;SDS011;64760;53.404;23.498;2023-06-22T03:07:06;21.85;;;15.52;;
73593;SDS011;64760;53.404;23.498;2023-06-22T03:09:34;23.42;;;16.63;;
73593;SDS011;64760;53.404;23.498;2023-06-22T03:12:00;21.75;;;15.15;;
73593;SDS011;64760;53.404;23.498;2023-06-22T03:14:35;21.00;;;15.10;;
73593;SDS011;64760;53.404;23.498;2023-06-22T03:17:04;22.50;;;15.95;;
73593;SDS011;64760;53.404;23.498;2023-06-22T03:19:31;20.67;;;15.85;;
73593;SDS011;64760;53.404;23.498;2023-06-22T03:21:59;21.40;;;15.60;;
73593;SDS011;64760;53.404;23.498;2023-06-22T03:24:26;25.23;;;15.70;;
73593;SDS011;64760;53.404;23.498;2023-06-22T03:26:54;22.20;;;14.90;;
73593;SDS011;64760;53.404;23.498;2023-06-22T03:29:22;20.05;;;14.80;;
73593;SDS011;64760;53.404;23.498;2023-06-22T03:31:49;20.67;;;15.05;;
73593;SDS011;64760;53.404;23.498;2023-06-22T03:34:16;17.55;;;12.50;;
73593;SDS011;64760;53.404;23.498;2023-06-22T03:36:43;20.23;;;14.40;;
73593;SDS011;64760;53.404;23.498;2023-06-22T03:39:11;20.77;;;13.50;;
73593;SDS011;64760;53.404;23.498;2023-06-22T03:41:37;17.75;;;12.70;;
73593;SDS011;64760;53.404;23.498;2023-06-22T03:44:04;18.20;;;13.82;;
73593;SDS011;64760;53.404;23.498;2023-06-22T03:46:31;20.05;;;14.43;;
73593;SDS011;64760;53.404;23.498;2023-06-22T03:48:57;19.70;;;13.85;;
73593;SDS011;64760;53.404;23.498;2023-06-22T03:51:23;19.20;;;13.40;;
73593;SDS011;64760;53.404;23.498;2023-06-22T03:53:50;19.02;;;13.50;;
73593;SDS011;64760;53.404;23.498;2023-06-22T03:56:16;19.58;;;14.13;;
73593;SDS011;64760;53.404;23.498;2023-06-22T03:58:46;18.80;;;13.85;;
73593;SDS011;64760;53.404;23.498;2023-06-22T04:01:12;21.33;;;15.75;;
73593;SDS011;64760;53.404;23.498;2023-06-22T04:03:39;23.65;;;16.20;;
73593;SDS011;64760;53.404;23.498;2023-06-22T04:06:05;21.23;;;15.00;;
73593;SDS011;64760;53.404;23.498;2023-06-22T04:08:31;18.23;;;13.80;;
73593;SDS011;64760;53.404;23.498;2023-06-22T04:10:57;18.92;;;13.35;;
73593;SDS011;64760;53.404;23.498;2023-06-22T04:13:23;19.20;;;14.25;;
73593;SDS011;64760;53.404;23.498;2023-06-22T04:15:49;17.75;;;13.35;;
73593;SDS011;64760;53.404;23.498;2023-06-22T04:18:16;19.50;;;13.95;;
73593;SDS011;64760;53.404;23.498;2023-06-22T04:20:42;17.02;;;13.13;;
73593;SDS011;64760;53.404;23.498;2023-06-22T04:23:10;18.13;;;13.90;;
73593;SDS011;64760;53.404;23.498;2023-06-22T04:25:36;18.25;;;13.30;;
73593;SDS011;64760;53.404;23.498;2023-06-22T04:28:03;18.17;;;13.13;;
73593;SDS011;64760;53.404;23.498;2023-06-22T04:30:29;16.55;;;13.07;;
73593;SDS011;64760;53.404;23.498;2023-06-22T04:32:57;16.58;;;11.95;;
73593;SDS011;64760;53.404;23.498;2023-06-22T04:35:24;16.88;;;13.35;;
73593;SDS011;64760;53.404;23.498;2023-06-22T04:37:50;17.10;;;13.15;;
73593;SDS011;64760;53.404;23.498;2023-06-22T04:40:23;17.85;;;12.85;;
73593;SDS011;64760;53.404;23.498;2023-06-22T04:42:49;17.40;;;12.07;;
73593;SDS011;64760;53.404;23.498;2023-06-22T04:45:19;17.75;;;13.63;;
73593;SDS011;64760;53.404;23.498;2023-06-22T04:47:46;16.92;;;13.30;;
73593;SDS011;64760;53.404;23.498;2023-06-22T04:50:12;17.95;;;13.13;;
73593;SDS011;64760;53.404;23.498;2023-06-22T04:52:39;18.38;;;14.30;;
73593;SDS011;64760;53.404;23.498;2023-06-22T04:55:05;19.90;;;14.77;;
73593;SDS011;64760;53.404;23.498;2023-06-22T04:59:59;20.42;;;14.77;;
73593;SDS011;64760;53.404;23.498;2023-06-22T05:02:41;20.10;;;14.40;;
73593;SDS011;64760;53.404;23.498;2023-06-22T05:05:07;18.10;;;14.20;;
73593;SDS011;64760;53.404;23.498;2023-06-22T05:07:34;19.90;;;15.05;;
73593;SDS011;64760;53.404;23.498;2023-06-22T05:10:03;19.83;;;15.18;;
73593;SDS011;64760;53.404;23.498;2023-06-22T05:12:30;21.08;;;15.07;;
73593;SDS011;64760;53.404;23.498;2023-06-22T05:14:57;20.05;;;15.20;;
73593;SDS011;64760;53.404;23.498;2023-06-22T05:17:24;21.13;;;15.75;;
73593;SDS011;64760;53.404;23.498;2023-06-22T05:19:50;21.08;;;16.38;;
73593;SDS011;64760;53.404;23.498;2023-06-22T05:22:17;26.13;;;19.15;;
73593;SDS011;64760;53.404;23.498;2023-06-22T05:24:43;20.95;;;15.90;;
73593;SDS011;64760;53.404;23.498;2023-06-22T05:27:10;23.65;;;15.95;;
73593;SDS011;64760;53.404;23.498;2023-06-22T05:29:36;18.90;;;15.18;;
73593;SDS011;64760;53.404;23.498;2023-06-22T05:32:03;72.85;;;19.23;;
73593;SDS011;64760;53.404;23.498;2023-06-22T05:34:29;20.60;;;15.23;;
73593;SDS011;64760;53.404;23.498;2023-06-22T05:36:56;18.15;;;13.35;;
73593;SDS011;64760;53.404;23.498;2023-06-22T05:39:24;18.75;;;13.73;;
73593;SDS011;64760;53.404;23.498;2023-06-22T05:41:51;18.10;;;13.35;;
73593;SDS011;64760;53.404;23.498;2023-06-22T05:44:18;16.52;;;12.75;;
73593;SDS011;64760;53.404;23.498;2023-06-22T05:46:45;15.85;;;12.50;;
73593;SDS011;64760;53.404;23.498;2023-06-22T05:49:14;15.13;;;11.43;;
73593;SDS011;64760;53.404;23.498;2023-06-22T05:51:42;13.77;;;11.38;;
73593;SDS011;64760;53.404;23.498;2023-06-22T05:54:08;12.80;;;10.63;;
73593;SDS011;64760;53.404;23.498;2023-06-22T05:56:34;15.15;;;10.57;;
73593;SDS011;64760;53.404;23.498;2023-06-22T05:59:00;14.63;;;11.20;;
73593;SDS011;64760;53.404;23.498;2023-06-22T06:01:27;13.32;;;10.48;;
73593;SDS011;64760;53.404;23.498;2023-06-22T06:03:53;15.65;;;11.32;;
73593;SDS011;64760;53.404;23.498;2023-06-22T06:06:19;14.90;;;9.63;;
73593;SDS011;64760;53.404;23.498;2023-06-22T06:08:54;12.10;;;9.98;;
73593;SDS011;64760;53.404;23.498;2023-06-22T06:13:47;13.15;;;9.48;;
73593;SDS011;64760;53.404;23.498;2023-06-22T06:16:14;13.45;;;10.07;;
73593;SDS011;64760;53.404;23.498;2023-06-22T06:18:40;12.63;;;10.38;;
73593;SDS011;64760;53.404;23.498;2023-06-22T06:21:07;14.15;;;10.77;;
73593;SDS011;64760;53.404;23.498;2023-06-22T06:23:33;14.82;;;10.18;;
73593;SDS011;64760;53.404;23.498;2023-06-22T06:25:59;13.27;;;10.50;;
73593;SDS011;64760;53.404;23.498;2023-06-22T06:28:27;12.60;;;10.23;;
73593;SDS011;64760;53.404;23.498;2023-06-22T06:30:53;14.15;;;11.13;;
73593;SDS011;64760;53.404;23.498;2023-06-22T06:33:19;14.30;;;12.45;;
73593;SDS011;64760;53.404;23.498;2023-06-22T06:35:46;15.25;;;11.02;;
73593;SDS011;64760;53.404;23.498;2023-06-22T06:38:13;16.05;;;12.27;;
73593;SDS011;64760;53.404;23.498;2023-06-22T06:40:39;16.05;;;11.80;;
73593;SDS011;64760;53.404;23.498;2023-06-22T06:43:05;15.98;;;12.65;;
73593;SDS011;64760;53.404;23.498;2023-06-22T06:45:31;15.50;;;11.40;;
73593;SDS011;64760;53.404;23.498;2023-06-22T06:48:00;16.33;;;12.20;;
73593;SDS011;64760;53.404;23.498;2023-06-22T06:50:27;17.52;;;13.25;;
73593;SDS011;64760;53.404;23.498;2023-06-22T06:52:53;17.42;;;12.75;;
73593;SDS011;64760;53.404;23.498;2023-06-22T06:55:20;18.13;;;12.85;;
73593;SDS011;64760;53.404;23.498;2023-06-22T06:57:49;19.23;;;12.90;;
73593;SDS011;64760;53.404;23.498;2023-06-22T07:00:16;16.80;;;12.27;;
73593;SDS011;64760;53.404;23.498;2023-06-22T07:02:43;17.67;;;12.38;;
73593;SDS011;64760;53.404;23.498;2023-06-22T07:05:11;16.88;;;13.70;;
73593;SDS011;64760;53.404;23.498;2023-06-22T07:07:38;16.70;;;13.13;;
73593;SDS011;64760;53.404;23.498;2023-06-22T07:10:04;16.50;;;13.10;;
73593;SDS011;64760;53.404;23.498;2023-06-22T07:12:31;17.33;;;13.15;;
73593;SDS011;64760;53.404;23.498;2023-06-22T07:17:34;16.58;;;13.85;;
73593;SDS011;64760;53.404;23.498;2023-06-22T07:20:01;18.02;;;14.00;;
73593;SDS011;64760;53.404;23.498;2023-06-22T07:22:29;17.65;;;13.43;;
73593;SDS011;64760;53.404;23.498;2023-06-22T07:24:57;18.88;;;14.00;;
73593;SDS011;64760;53.404;23.498;2023-06-22T07:27:23;18.98;;;13.93;;
73593;SDS011;64760;53.404;23.498;2023-06-22T07:29:50;18.58;;;14.05;;
73593;SDS011;64760;53.404;23.498;2023-06-22T07:32:16;21.02;;;15.07;;
73593;SDS011;64760;53.404;23.498;2023-06-22T07:34:42;18.67;;;15.70;;
73593;SDS011;64760;53.404;23.498;2023-06-22T07:37:09;20.63;;;14.77;;
73593;SDS011;64760;53.404;23.498;2023-06-22T07:39:35;20.60;;;14.38;;
73593;SDS011;64760;53.404;23.498;2023-06-22T07:42:03;18.98;;;14.68;;
73593;SDS011;64760;53.404;23.498;2023-06-22T07:46:56;20.77;;;14.75;;
73593;SDS011;64760;53.404;23.498;2023-06-22T07:49:22;19.45;;;15.07;;
73593;SDS011;64760;53.404;23.498;2023-06-22T07:51:48;19.42;;;14.85;;
73593;SDS011;64760;53.404;23.498;2023-06-22T07:54:14;19.35;;;15.23;;
73593;SDS011;64760;53.404;23.498;2023-06-22T07:56:41;19.98;;;14.63;;
73593;SDS011;64760;53.404;23.498;2023-06-22T07:59:08;20.20;;;14.45;;
73593;SDS011;64760;53.404;23.498;2023-06-22T08:01:34;18.38;;;13.88;;
73593;SDS011;64760;53.404;23.498;2023-06-22T08:04:01;17.40;;;13.88;;
73593;SDS011;64760;53.404;23.498;2023-06-22T08:06:29;19.67;;;15.32;;
73593;SDS011;64760;53.404;23.498;2023-06-22T08:08:56;19.42;;;15.13;;
73593;SDS011;64760;53.404;23.498;2023-06-22T08:11:24;20.10;;;15.57;;
73593;SDS011;64760;53.404;23.498;2023-06-22T08:13:51;18.38;;;13.77;;
73593;SDS011;64760;53.404;23.498;2023-06-22T08:16:18;18.02;;;14.40;;
73593;SDS011;64760;53.404;23.498;2023-06-22T08:18:44;17.10;;;12.77;;
73593;SDS011;64760;53.404;23.498;2023-06-22T08:21:10;17.98;;;15.32;;
73593;SDS011;64760;53.404;23.498;2023-06-22T08:23:37;17.13;;;13.95;;
73593;SDS011;64760;53.404;23.498;2023-06-22T08:26:03;18.05;;;13.50;;
73593;SDS011;64760;53.404;23.498;2023-06-22T08:28:30;17.83;;;13.38;;
73593;SDS011;64760;53.404;23.498;2023-06-22T08:30:56;18.05;;;14.18;;
73593;SDS011;64760;53.404;23.498;2023-06-22T08:33:22;16.02;;;12.77;;
73593;SDS011;64760;53.404;23.498;2023-06-22T08:35:54;18.08;;;14.13;;
73593;SDS011;64760;53.404;23.498;2023-06-22T08:38:21;17.90;;;14.73;;
73593;SDS011;64760;53.404;23.498;2023-06-22T08:40:47;19.17;;;13.48;;
73593;SDS011;64760;53.404;23.498;2023-06-22T08:43:14;19.25;;;14.40;;
73593;SDS011;64760;53.404;23.498;2023-06-22T08:45:40;18.15;;;13.27;;
73593;SDS011;64760;53.404;23.498;2023-06-22T08:48:06;18.45;;;13.70;;
73593;SDS011;64760;53.404;23.498;2023-06-22T08:52:59;17.67;;;12.90;;
73593;SDS011;64760;53.404;23.498;2023-06-22T08:55:25;16.20;;;13.23;;
73593;SDS011;64760;53.404;23.498;2023-06-22T08:57:52;17.40;;;13.50;;
73593;SDS011;64760;53.404;23.498;2023-06-22T09:00:18;17.17;;;14.70;;
73593;SDS011;64760;53.404;23.498;2023-06-22T09:02:47;19.40;;;12.57;;
73593;SDS011;64760;53.404;23.498;2023-06-22T09:05:13;17.35;;;13.93;;
73593;SDS011;64760;53.404;23.498;2023-06-22T09:10:06;14.70;;;10.15;;
73593;SDS011;64760;53.404;23.498;2023-06-22T09:12:33;15.50;;;11.60;;
73593;SDS011;64760;53.404;23.498;2023-06-22T09:15:00;15.30;;;11.77;;
73593;SDS011;64760;53.404;23.498;2023-06-22T09:17:27;24.55;;;14.55;;
73593;SDS011;64760;53.404;23.498;2023-06-22T09:19:53;28.67;;;16.60;;
73593;SDS011;64760;53.404;23.498;2023-06-22T09:22:20;19.63;;;13.05;;
73593;SDS011;64760;53.404;23.498;2023-06-22T09:24:46;23.48;;;15.20;;
73593;SDS011;64760;53.404;23.498;2023-06-22T09:27:13;26.55;;;16.45;;
73593;SDS011;64760;53.404;23.498;2023-06-22T09:29:39;30.50;;;19.90;;
73593;SDS011;64760;53.404;23.498;2023-06-22T09:32:05;31.42;;;20.33;;
73593;SDS011;64760;53.404;23.498;2023-06-22T09:34:32;31.65;;;22.08;;
73593;SDS011;64760;53.404;23.498;2023-06-22T09:36:58;26.63;;;15.77;;
73593;SDS011;64760;53.404;23.498;2023-06-22T09:39:26;23.67;;;13.65;;
73593;SDS011;64760;53.404;23.498;2023-06-22T09:41:52;22.13;;;14.68;;
73593;SDS011;64760;53.404;23.498;2023-06-22T09:44:18;24.58;;;13.95;;
73593;SDS011;64760;53.404;23.498;2023-06-22T09:46:45;25.30;;;14.25;;
73593;SDS011;64760;53.404;23.498;2023-06-22T09:49:11;26.77;;;17.02;;
73593;SDS011;64760;53.404;23.498;2023-06-22T09:51:37;29.85;;;18.65;;
73593;SDS011;64760;53.404;23.498;2023-06-22T09:54:03;25.60;;;16.10;;
73593;SDS011;64760;53.404;23.498;2023-06-22T09:56:30;42.78;;;26.20;;
73593;SDS011;64760;53.404;23.498;2023-06-22T09:58:57;41.03;;;26.80;;
73593;SDS011;64760;53.404;23.498;2023-06-22T10:01:23;39.38;;;24.25;;
73593;SDS011;64760;53.404;23.498;2023-06-22T10:03:52;39.53;;;25.27;;
73593;SDS011;64760;53.404;23.498;2023-06-22T10:06:21;36.67;;;22.83;;
73593;SDS011;64760;53.404;23.498;2023-06-22T10:08:49;34.10;;;22.17;;
73593;SDS011;64760;53.404;23.498;2023-06-22T10:11:16;28.90;;;19.02;;
73593;SDS011;64760;53.404;23.498;2023-06-22T10:13:42;21.48;;;14.90;;
73593;SDS011;64760;53.404;23.498;2023-06-22T10:16:09;20.40;;;12.43;;
73593;SDS011;64760;53.404;23.498;2023-06-22T10:18:35;16.55;;;11.00;;
73593;SDS011;64760;53.404;23.498;2023-06-22T10:21:02;16.45;;;11.05;;
73593;SDS011;64760;53.404;23.498;2023-06-22T10:23:28;12.48;;;8.73;;
73593;SDS011;64760;53.404;23.498;2023-06-22T10:25:54;11.15;;;6.82;;
73593;SDS011;64760;53.404;23.498;2023-06-22T10:28:22;11.88;;;7.55;;
73593;SDS011;64760;53.404;23.498;2023-06-22T10:30:49;13.40;;;8.48;;
73593;SDS011;64760;53.404;23.498;2023-06-22T10:33:15;11.23;;;7.28;;
73593;SDS011;64760;53.404;23.498;2023-06-22T10:35:41;12.00;;;8.65;;
73593;SDS011;64760;53.404;23.498;2023-06-22T10:38:07;15.05;;;9.10;;
73593;SDS011;64760;53.404;23.498;2023-06-22T10:40:34;15.25;;;9.27;;
73593;SDS011;64760;53.404;23.498;2023-06-22T10:43:00;12.20;;;8.68;;
73593;SDS011;64760;53.404;23.498;2023-06-22T10:45:27;13.32;;;8.43;;
73593;SDS011;64760;53.404;23.498;2023-06-22T10:47:53;13.32;;;8.50;;
73593;SDS011;64760;53.404;23.498;2023-06-22T10:50:19;13.20;;;9.93;;
73593;SDS011;64760;53.404;23.498;2023-06-22T10:52:45;12.80;;;9.35;;
73593;SDS011;64760;53.404;23.498;2023-06-22T10:55:12;14.02;;;8.38;;
73593;SDS011;64760;53.404;23.498;2023-06-22T10:57:38;13.20;;;10.10;;
73593;SDS011;64760;53.404;23.498;2023-06-22T11:00:07;13.85;;;8.38;;
73593;SDS011;64760;53.404;23.498;2023-06-22T11:02:34;13.52;;;9.35;;
73593;SDS011;64760;53.404;23.498;2023-06-22T11:05:01;13.38;;;9.07;;
73593;SDS011;64760;53.404;23.498;2023-06-22T11:07:27;10.93;;;7.93;;
73593;SDS011;64760;53.404;23.498;2023-06-22T11:09:55;13.95;;;8.80;;
73593;SDS011;64760;53.404;23.498;2023-06-22T11:12:21;11.90;;;7.40;;
73593;SDS011;64760;53.404;23.498;2023-06-22T11:14:47;10.60;;;6.85;;
73593;SDS011;64760;53.404;23.498;2023-06-22T11:17:16;9.73;;;6.63;;
73593;SDS011;64760;53.404;23.498;2023-06-22T11:19:42;10.32;;;7.13;;
73593;SDS011;64760;53.404;23.498;2023-06-22T11:22:08;9.27;;;6.43;;
73593;SDS011;64760;53.404;23.498;2023-06-22T11:24:35;10.20;;;7.43;;
73593;SDS011;64760;53.404;23.498;2023-06-22T11:29:50;9.10;;;5.85;;
73593;SDS011;64760;53.404;23.498;2023-06-22T11:32:18;9.15;;;6.57;;
73593;SDS011;64760;53.404;23.498;2023-06-22T11:34:45;7.97;;;5.68;;
73593;SDS011;64760;53.404;23.498;2023-06-22T11:37:12;10.45;;;6.35;;
73593;SDS011;64760;53.404;23.498;2023-06-22T11:42:05;8.07;;;5.35;;
73593;SDS011;64760;53.404;23.498;2023-06-22T11:46:58;8.70;;;5.70;;
73593;SDS011;64760;53.404;23.498;2023-06-22T11:49:27;10.02;;;6.00;;
73593;SDS011;64760;53.404;23.498;2023-06-22T11:51:53;9.18;;;6.07;;
73593;SDS011;64760;53.404;23.498;2023-06-22T11:56:46;8.93;;;5.05;;
73593;SDS011;64760;53.404;23.498;2023-06-22T11:59:13;8.48;;;6.03;;
73593;SDS011;64760;53.404;23.498;2023-06-22T12:01:39;14.20;;;5.45;;
73593;SDS011;64760;53.404;23.498;2023-06-22T12:04:09;8.80;;;4.95;;
73593;SDS011;64760;53.404;23.498;2023-06-22T12:06:38;7.05;;;5.25;;
73593;SDS011;64760;53.404;23.498;2023-06-22T12:09:09;7.90;;;5.88;;
73593;SDS011;64760;53.404;23.498;2023-06-22T12:11:36;9.00;;;5.70;;
73593;SDS011;64760;53.404;23.498;2023-06-22T12:14:02;11.57;;;6.70;;
73593;SDS011;64760;53.404;23.498;2023-06-22T12:16:29;8.27;;;6.53;;
73593;SDS011;64760;53.404;23.498;2023-06-22T12:18:56;9.52;;;5.85;;
73593;SDS011;64760;53.404;23.498;2023-06-22T12:21:22;8.25;;;5.70;;
73593;SDS011;64760;53.404;23.498;2023-06-22T12:23:48;8.02;;;5.70;;
73593;SDS011;64760;53.404;23.498;2023-06-22T12:26:15;9.50;;;6.70;;
73593;SDS011;64760;53.404;23.498;2023-06-22T12:28:41;8.15;;;5.97;;
73593;SDS011;64760;53.404;23.498;2023-06-22T12:31:07;7.78;;;5.20;;
73593;SDS011;64760;53.404;23.498;2023-06-22T12:33:34;7.70;;;4.82;;
73593;SDS011;64760;53.404;23.498;2023-06-22T12:36:00;9.85;;;7.28;;
73593;SDS011;64760;53.404;23.498;2023-06-22T12:38:27;8.88;;;6.43;;
73593;SDS011;64760;53.404;23.498;2023-06-22T12:40:53;10.23;;;6.15;;
73593;SDS011;64760;53.404;23.498;2023-06-22T12:43:20;8.98;;;6.78;;
73593;SDS011;64760;53.404;23.498;2023-06-22T12:45:46;9.70;;;6.70;;
73593;SDS011;64760;53.404;23.498;2023-06-22T12:48:13;9.20;;;6.90;;
73593;SDS011;64760;53.404;23.498;2023-06-22T12:50:39;8.07;;;4.82;;
73593;SDS011;64760;53.404;23.498;2023-06-22T12:53:05;7.18;;;4.82;;
73593;SDS011;64760;53.404;23.498;2023-06-22T12:55:32;8.45;;;5.88;;
73593;SDS011;64760;53.404;23.498;2023-06-22T12:57:58;10.02;;;6.20;;
73593;SDS011;64760;53.404;23.498;2023-06-22T13:00:30;7.22;;;5.40;;
73593;SDS011;64760;53.404;23.498;2023-06-22T13:03:01;10.70;;;5.93;;
73593;SDS011;64760;53.404;23.498;2023-06-22T13:05:36;8.05;;;5.05;;
73593;SDS011;64760;53.404;23.498;2023-06-22T13:08:08;7.70;;;5.50;;
73593;SDS011;64760;53.404;23.498;2023-06-22T13:10:42;7.53;;;5.30;;
73593;SDS011;64760;53.404;23.498;2023-06-22T13:13:16;7.75;;;5.93;;
73593;SDS011;64760;53.404;23.498;2023-06-22T13:15:50;8.52;;;5.60;;
73593;SDS011;64760;53.404;23.498;2023-06-22T13:18:22;9.75;;;5.10;;
73593;SDS011;64760;53.404;23.498;2023-06-22T13:20:49;7.32;;;4.75;;
73593;SDS011;64760;53.404;23.498;2023-06-22T13:23:17;8.73;;;5.07;;
73593;SDS011;64760;53.404;23.498;2023-06-22T13:25:49;7.18;;;4.47;;
73593;SDS011;64760;53.404;23.498;2023-06-22T13:28:21;7.07;;;5.20;;
73593;SDS011;64760;53.404;23.498;2023-06-22T13:30:53;5.93;;;4.50;;
73593;SDS011;64760;53.404;23.498;2023-06-22T13:33:25;7.32;;;4.93;;
73593;SDS011;64760;53.404;23.498;2023-06-22T13:36:00;6.68;;;4.57;;
73593;SDS011;64760;53.404;23.498;2023-06-22T13:38:35;7.60;;;5.32;;
73593;SDS011;64760;53.404;23.498;2023-06-22T13:41:14;6.63;;;4.93;;
73593;SDS011;64760;53.404;23.498;2023-06-22T13:43:49;7.85;;;5.40;;
73593;SDS011;64760;53.404;23.498;2023-06-22T13:46:24;5.70;;;4.32;;
73593;SDS011;64760;53.404;23.498;2023-06-22T13:48:58;8.15;;;4.97;;
73593;SDS011;64760;53.404;23.498;2023-06-22T13:51:41;6.18;;;3.80;;
73593;SDS011;64760;53.404;23.498;2023-06-22T13:57:14;9.35;;;5.80;;
73593;SDS011;64760;53.404;23.498;2023-06-22T13:59:42;6.03;;;3.80;;
73593;SDS011;64760;53.404;23.498;2023-06-22T14:02:08;6.45;;;4.35;;
73593;SDS011;64760;53.404;23.498;2023-06-22T14:04:35;7.63;;;5.07;;
73593;SDS011;64760;53.404;23.498;2023-06-22T14:07:02;5.68;;;3.45;;
73593;SDS011;64760;53.404;23.498;2023-06-22T14:09:28;6.13;;;4.47;;
73593;SDS011;64760;53.404;23.498;2023-06-22T14:11:55;6.32;;;5.00;;
73593;SDS011;64760;53.404;23.498;2023-06-22T14:14:28;7.43;;;5.05;;
73593;SDS011;64760;53.404;23.498;2023-06-22T14:16:54;7.95;;;4.47;;
73593;SDS011;64760;53.404;23.498;2023-06-22T14:19:21;6.45;;;5.03;;
73593;SDS011;64760;53.404;23.498;2023-06-22T14:21:47;6.13;;;4.28;;
73593;SDS011;64760;53.404;23.498;2023-06-22T14:24:15;6.68;;;3.63;;
73593;SDS011;64760;53.404;23.498;2023-06-22T14:26:47;6.35;;;3.97;;
73593;SDS011;64760;53.404;23.498;2023-06-22T14:29:13;6.68;;;4.40;;
73593;SDS011;64760;53.404;23.498;2023-06-22T14:31:40;6.47;;;4.63;;
73593;SDS011;64760;53.404;23.498;2023-06-22T14:34:07;6.60;;;4.63;;
73593;SDS011;64760;53.404;23.498;2023-06-22T14:36:34;5.88;;;3.97;;
73593;SDS011;64760;53.404;23.498;2023-06-22T14:39:00;5.75;;;4.20;;
73593;SDS011;64760;53.404;23.498;2023-06-22T14:41:29;6.15;;;3.88;;
73593;SDS011;64760;53.404;23.498;2023-06-22T14:43:56;5.28;;;3.72;;
73593;SDS011;64760;53.404;23.498;2023-06-22T14:46:22;6.32;;;3.70;;
73593;SDS011;64760;53.404;23.498;2023-06-22T14:48:49;6.13;;;4.30;;
73593;SDS011;64760;53.404;23.498;2023-06-22T14:51:15;6.75;;;3.97;;
73593;SDS011;64760;53.404;23.498;2023-06-22T14:53:43;9.88;;;4.55;;
73593;SDS011;64760;53.404;23.498;2023-06-22T14:56:10;6.50;;;3.75;;
73593;SDS011;64760;53.404;23.498;2023-06-22T14:58:40;5.97;;;4.57;;
73593;SDS011;64760;53.404;23.498;2023-06-22T15:01:07;7.43;;;4.25;;
73593;SDS011;64760;53.404;23.498;2023-06-22T15:03:34;5.35;;;3.65;;
73593;SDS011;64760;53.404;23.498;2023-06-22T15:06:02;5.30;;;3.40;;
73593;SDS011;64760;53.404;23.498;2023-06-22T15:08:29;4.82;;;3.45;;